Station: Gove Airport  

  Atmospheric Gas Attenuation - ITU Rec 676-11   ----------------- dB/100km -----------------
Date Time Temp RH % AH g/m3 Dew Point Wind Direction Speed kph Gust kph Barometer mB Rainfall Since 9am 24GHz 47GHz 76GHz 122GHz 134GHz 241GHz
05/05 01:50 23.7 94 20.11 22.7 7 9 1011.5 0 43.5 42.8 83.9 221.9 246.2 854.9
05/05 01:40 23.8 95 20.43 22.9 7 9 1011.5 0 44.2 43.4 85.3 225.8 251.0 871.8
05/05 01:30 23.7 95 20.32 22.9 7 9 1011.4 0 43.9 43.2 84.9 224.7 249.6 866.7
05/05 01:20 23.6 95 20.2 22.8 9 9 1011.4 0 43.7 43.0 84.4 223.4 248.0 861.1
05/05 01:10 23.6 95 20.2 22.8 7 9 1011.4 0 43.7 43.0 84.4 223.4 248.0 861.1
05/05 01:00 23.6 95 20.2 22.8 7 7 1011.6 0 43.7 43.0 84.4 223.4 248.0 861.2
05/05 00:50 23.4 94 19.76 22.4 7 7 1011.8 0 42.8 42.2 82.5 218.2 241.6 838.9
05/05 00:40 23.7 94 20.11 22.7 6 6 1011.9 0 43.5 42.8 83.9 222.0 246.2 855.2
05/05 00:30 23.7 94 20.11 22.7 6 7 1012 0 43.5 42.8 83.9 222.0 246.3 855.2
05/05 00:20 23.8 92 19.79 22.4 6 7 1012 0 42.8 42.1 82.2 217.5 240.8 836.2
05/05 00:10 24.3 93 20.58 23.1 7 7 1012.1 0 44.4 43.4 85.5 226.4 251.9 874.8
05/05 00:00 24.3 93 20.58 23.1 7 7 1012.4 0 44.4 43.4 85.6 226.5 251.9 875.0
04/05 23:50 24.2 93 20.46 23 7 7 1012.6 0 44.2 43.3 85.1 225.2 250.3 869.5
04/05 23:40 24.2 93 20.46 23 9 9 1012.7 0 44.2 43.3 85.1 225.2 250.4 869.5
04/05 23:30 24.3 92 20.36 22.9 9 11 1012.6 0 43.9 43.0 84.5 223.6 248.4 862.7
04/05 23:20 24.4 92 20.47 23 9 11 1012.5 0 44.2 43.2 84.9 224.7 249.8 867.7
04/05 23:10 24.4 92 20.47 23 9 9 1012.6 0 44.2 43.2 84.9 224.7 249.8 867.7
04/05 23:00 24.5 92 20.59 23.1 9 9 1012.6 0 44.4 43.4 85.4 226.0 251.4 873.3
04/05 22:50 24.5 92 20.59 23.1 9 9 1012.6 0 44.4 43.4 85.4 226.0 251.4 873.3
04/05 22:40 24.6 91 20.48 23 7 9 1012.6 0 44.2 43.1 84.7 224.3 249.3 866.0
04/05 22:30 24.6 91 20.48 23 9 11 1012.6 0 44.2 43.1 84.7 224.3 249.3 866.0
04/05 22:20 24.6 91 20.48 23 9 9 1012.7 0 44.2 43.1 84.7 224.3 249.3 866.0
04/05 22:10 24.8 90 20.49 23 9 11 1012.7 0 44.2 43.0 84.6 223.8 248.8 864.3
04/05 22:00 25 90 20.72 23.2 7 9 1012.7 0 44.6 43.4 85.5 226.2 251.8 874.8
04/05 21:50 25 90 20.72 23.2 7 9 1012.8 0 44.6 43.4 85.5 226.3 251.9 874.9
04/05 21:40 25.2 89 20.72 23.3 7 9 1012.8 0 44.6 43.3 85.3 225.6 251.2 872.5
04/05 21:30 25.3 88 20.6 23.2 7 11 1012.8 0 44.3 43.0 84.6 223.8 248.9 864.7
04/05 21:20 25.4 88 20.72 23.3 9 11 1012.7 0 44.6 43.1 85.0 225.0 250.5 870.1
04/05 21:10 25.5 87 20.6 23.2 9 11 1012.7 0 44.3 42.9 84.3 223.2 248.2 862.3
04/05 21:00 25.5 87 20.6 23.2 9 13 1012.7 0 44.3 42.9 84.3 223.2 248.2 862.3
04/05 20:50 25.5 88 20.83 23.4 9 11 1012.6 0 44.8 43.3 85.4 226.1 251.9 875.0
04/05 20:40 25.3 89 20.84 23.4 11 13 1012.6 0 44.8 43.4 85.7 226.9 252.7 877.9
04/05 20:30 25.6 88 20.95 23.5 9 13 1012.6 0 45.0 43.5 85.9 227.4 253.5 880.6
04/05 20:20 25.6 87 20.71 23.3 9 11 1012.6 0 44.5 43.0 84.7 224.3 249.6 867.2
04/05 20:10 25.6 87 20.71 23.3 7 9 1012.6 0 44.5 43.0 84.7 224.3 249.6 867.2
04/05 20:00 25.6 88 20.95 23.5 7 9 1012.4 0 45.0 43.5 85.9 227.4 253.4 880.4
04/05 19:50 25.8 87 20.95 23.5 9 11 1012.3 0 45.0 43.4 85.7 226.8 252.7 878.0
04/05 19:40 25.9 86 20.82 23.4 9 9 1012.3 0 44.7 43.1 84.9 224.8 250.3 869.6
04/05 19:30 26 86 20.94 23.5 9 11 1012.1 0 45.0 43.2 85.4 226.0 251.9 875.0
04/05 19:20 26.1 85 20.81 23.4 9 11 1012 0 44.7 42.9 84.6 224.0 249.4 866.6
04/05 19:10 26.2 86 21.17 23.7 9 11 1011.8 0 45.5 43.6 86.3 228.3 254.8 885.3
04/05 19:00 26.3 86 21.29 23.8 11 13 1011.7 0 45.7 43.7 86.7 229.6 256.4 890.7
04/05 18:50 26.5 85 21.28 23.8 11 11 1011.6 0 45.7 43.6 86.4 228.8 255.5 887.7
04/05 18:40 26.8 83 21.13 23.7 11 13 1011.6 0 45.3 43.2 85.4 226.0 252.1 875.9
04/05 18:30 26.9 82 20.99 23.6 11 15 1011.6 0 45.0 42.8 84.6 223.9 249.5 867.0
04/05 18:20 27 81 20.85 23.5 11 13 1011.5 0 44.7 42.5 83.8 221.8 247.0 858.2
04/05 18:10 27.1 80 20.7 23.3 13 15 1011.4 0 44.3 42.2 82.9 219.5 244.3 848.8
04/05 18:00 27.4 79 20.79 23.4 15 19 1011.4 0 44.5 42.2 83.0 219.8 244.7 850.3
04/05 17:50 27.6 79 21.02 23.6 15 17 1011.3 0 45.0 42.5 83.9 222.1 247.6 860.5
04/05 17:40 27.7 78 20.87 23.5 15 17 1011.2 0 44.6 42.2 83.1 219.9 244.9 851.2
04/05 17:30 27.9 77 20.83 23.5 17 24 1011.1 0 44.5 42.0 82.7 218.8 243.6 846.7
04/05 17:20 28 74 20.13 23.1 20 26 1011 0 43.0 40.6 79.3 209.8 232.6 808.2
04/05 17:10 28.2 77 21.17 23.8 15 19 1010.8 0 45.2 42.5 83.9 222.2 247.9 861.5
04/05 17:00 28.2 77 21.17 23.8 15 22 1010.6 0 45.2 42.5 83.9 222.1 247.8 861.3
04/05 16:50 28.8 76 21.6 24.1 13 15 1010.6 0 46.1 43.0 85.3 225.8 252.5 877.7
04/05 16:40 28.8 75 21.31 23.9 15 17 1010.6 0 45.4 42.4 83.9 222.2 248.0 862.0
04/05 16:30 28.8 75 21.31 23.9 17 24 1010.4 0 45.4 42.4 83.9 222.1 248.0 861.9
04/05 16:20 29 72 20.68 23.4 19 22 1010.3 0 44.1 41.1 80.7 213.7 237.7 826.1
04/05 16:10 29.1 74 21.37 24 20 22 1010.3 0 45.5 42.4 83.8 222.0 247.9 861.7
04/05 16:00 28.8 75 21.31 23.9 17 22 1010.3 0 45.4 42.4 83.9 222.1 248.0 861.9
04/05 15:50 28.9 74 21.14 23.8 19 22 1010.5 0 45.1 42.1 83.0 219.7 245.0 851.7
04/05 15:40 29.2 72 20.91 23.6 20 26 1010.5 0 44.6 41.5 81.6 216.0 240.5 836.2
04/05 15:30 29.5 69 20.37 23.4 19 26 1010.4 0 43.4 40.3 78.8 208.5 231.4 804.6
04/05 15:20 29.4 71 20.85 23.6 19 24 1010.5 0 44.4 41.3 81.1 214.7 239.0 830.8
04/05 15:10 29.1 75 21.66 24.2 19 20 1010.4 0 46.2 42.9 85.2 225.6 252.4 877.3
04/05 15:00 29 73 20.97 23.7 20 32 1010.4 0 44.7 41.7 82.1 217.3 242.1 841.5
04/05 14:50 29.1 72 20.8 23.5 24 26 1010.4 0 44.3 41.3 81.2 214.9 239.2 831.4
04/05 14:40 30.5 69 21.5 24.2 19 24 1010.4 0 45.6 41.9 82.9 219.5 245.3 852.8
04/05 14:30 30.1 67 20.43 23.5 22 30 1010.5 0 43.4 40.1 78.4 207.6 230.5 801.4
04/05 14:20 30.5 67 20.88 23.7 20 26 1010.6 0 44.3 40.8 80.1 212.0 236.0 820.5
04/05 14:10 29.7 69 20.59 23.4 19 22 1010.6 0 43.8 40.6 79.6 210.7 234.1 814.0
04/05 14:00 30.4 67 20.77 23.6 19 26 1010.7 0 44.1 40.6 79.7 210.9 234.7 815.9
04/05 13:50 30.4 66 20.46 23.3 20 26 1010.8 0 43.5 40.1 78.3 207.2 230.1 800.0
04/05 13:40 29.7 68 20.29 23.2 20 22 1010.8 0 43.2 40.1 78.2 207.0 229.7 798.5
04/05 13:30 29.7 68 20.29 23.2 20 30 1010.9 0 43.2 40.1 78.2 207.1 229.7 798.6
04/05 13:20 30.2 65 19.93 23.1 20 22 1010.9 0 42.4 39.2 76.1 201.4 222.9 774.9
04/05 13:10 30 63 19.11 22.4 28 32 1010.9 0 40.7 37.8 72.6 192.2 211.6 735.5
04/05 13:00 30.5 66 20.57 23.4 24 32 1011 0 43.7 40.2 78.7 208.3 231.4 804.7
04/05 12:50 31 64 20.49 23.6 22 28 1011.3 0 43.5 39.9 77.8 206.0 228.8 795.5
04/05 12:40 30.5 66 20.57 23.4 22 28 1011.4 0 43.7 40.3 78.7 208.3 231.5 804.9
04/05 12:30 30.6 68 21.3 24 20 30 1011.6 0 45.2 41.6 82.0 217.0 242.1 841.8
04/05 12:20 30.1 65 19.82 23 22 24 1011.6 0 42.2 39.1 75.7 200.4 221.7 770.7
04/05 12:10 30.3 69 21.27 24 24 28 1011.7 0 45.2 41.7 82.1 217.5 242.7 843.6
04/05 12:00 30.5 68 21.19 23.9 22 30 1011.8 0 45.0 41.4 81.6 216.0 240.8 837.3
04/05 11:50 30.6 67 20.99 23.8 26 28 1011.9 0 44.6 41.0 80.5 213.2 237.5 825.8
04/05 11:40 30.1 67 20.43 23.5 22 26 1012 0 43.4 40.2 78.5 207.8 230.7 802.2
04/05 11:30 30.4 70 21.7 24.3 22 32 1012.2 0 46.1 42.4 84.1 222.6 248.9 865.5
04/05 11:20 30 70 21.23 23.9 19 22 1012.2 0 45.1 41.8 82.3 217.9 243.1 845.2
04/05 11:10 29.8 70 21 23.7 20 26 1012.3 0 44.7 41.4 81.5 215.7 240.3 835.3
04/05 11:00 30.5 69 21.5 24.2 22 30 1012.4 0 45.6 42.0 83.0 219.9 245.6 853.9
04/05 10:50 29.4 71 20.85 23.6 22 28 1012.5 0 44.4 41.4 81.2 215.0 239.3 831.9
04/05 10:40 29.6 69 20.48 23.5 26 28 1012.4 0 43.6 40.6 79.3 209.9 233.1 810.3
04/05 10:30 30.5 68 21.19 23.9 20 32 1012.5 0 45.0 41.4 81.6 216.1 240.9 837.7
04/05 10:20 29.3 76 22.19 24.6 17 22 1012.5 0 47.2 43.9 87.7 232.1 260.3 904.9
04/05 10:10 28.8 74 21.03 23.7 24 28 1012.5 0 44.8 42.0 82.7 218.9 244.0 848.1
04/05 10:00 29 74 21.26 23.9 24 33 1012.4 0 45.3 42.3 83.6 221.2 246.9 858.1
04/05 09:50 29.5 72 21.25 23.9 24 30 1012.2 0 45.2 42.0 83.0 219.6 245.0 851.8
04/05 09:40 29.6 72 21.37 24 19 22 1012.2 0 45.5 42.2 83.4 220.8 246.5 857.1
04/05 09:30 28.9 72 20.57 23.3 22 33 1012.2 0 43.9 41.1 80.4 212.9 236.6 822.4
04/05 09:20 29.4 71 20.85 23.6 20 26 1012.3 0 44.4 41.3 81.2 215.0 239.3 831.8

Last Refresh: 05-May-2026 01:56:42

Bureau of Meteorology